Time;durP1;ratioP1;P1;durP2;ratioP2;P2;SDS_P1;SDS_P2;PMS_P1;PMS_P2;Temp;Humidity;BMP_temperature;BMP_pressure;BME280_temperature;BME280_humidity;BME280_pressure;Samples;Min_cycle;Max_cycle;Signal;HPM_P1;HPM_P2
2022/04/05 00:02:01;;;;;;;9.35;8.00;;;7.80;42.90;;;;;;5112816;28;20196;-63
2022/04/05 00:04:30;;;;;;;12.35;8.38;;;7.70;42.50;;;;;;5097491;28;20185;-63
2022/04/05 00:06:58;;;;;;;11.52;7.78;;;7.70;42.70;;;;;;5092557;28;20256;-63
2022/04/05 00:09:25;;;;;;;12.60;7.35;;;7.70;42.70;;;;;;5093249;28;20272;-63
2022/04/05 00:11:52;;;;;;;10.10;7.10;;;7.70;42.80;;;;;;5094005;28;20224;-63
2022/04/05 00:14:21;;;;;;;10.27;7.10;;;7.70;42.50;;;;;;5113055;28;20253;-63
2022/04/05 00:16:48;;;;;;;12.88;8.80;;;7.70;42.80;;;;;;5111223;28;20223;-63
2022/04/05 00:19:15;;;;;;;14.40;8.10;;;7.60;43.10;;;;;;5092392;28;20197;-63
2022/04/05 00:21:43;;;;;;;10.57;7.88;;;7.50;43.10;;;;;;5091900;28;20197;-65
2022/04/05 00:24:10;;;;;;;12.40;9.27;;;7.60;43.20;;;;;;5112194;28;20279;-64
2022/04/05 00:26:37;;;;;;;13.57;9.10;;;7.50;43.40;;;;;;5112394;28;20234;-63
2022/04/05 00:29:07;;;;;;;10.93;8.13;;;7.50;43.40;;;;;;5092853;28;20192;-63
2022/04/05 00:31:36;;;;;;;11.50;8.77;;;7.50;43.30;;;;;;5092383;28;20610;-63
2022/04/05 00:34:03;;;;;;;12.20;9.20;;;7.60;43.60;;;;;;5109616;28;20195;-63
2022/04/05 00:36:30;;;;;;;16.50;9.32;;;7.50;43.60;;;;;;5107471;28;20181;-63
2022/04/05 00:38:57;;;;;;;10.43;8.07;;;7.50;43.70;;;;;;5092062;28;20193;-63
2022/04/05 00:41:25;;;;;;;12.63;7.85;;;7.50;43.60;;;;;;5094895;28;20695;-63
2022/04/05 00:43:52;;;;;;;12.05;8.65;;;7.40;43.50;;;;;;5112533;28;20188;-64
2022/04/05 00:46:19;;;;;;;11.30;9.05;;;7.40;43.90;;;;;;5110069;28;20245;-62
2022/04/05 00:48:57;;;;;;;10.93;8.48;;;7.40;44.40;;;;;;5092184;28;20193;-63
2022/04/05 00:51:26;;;;;;;13.50;8.75;;;7.40;44.50;;;;;;5093772;28;20311;-63
2022/04/05 00:53:58;;;;;;;10.90;8.77;;;7.40;44.50;;;;;;5112225;28;20239;-65
2022/04/05 00:56:27;;;;;;;13.18;8.88;;;7.40;44.60;;;;;;5110385;28;20238;-63
2022/04/05 00:58:55;;;;;;;13.52;9.23;;;7.30;44.60;;;;;;5091847;28;20193;-63
2022/04/05 01:01:24;;;;;;;13.82;9.15;;;7.30;44.70;;;;;;5092286;28;20199;-64
2022/04/05 01:03:53;;;;;;;10.25;8.25;;;7.30;44.70;;;;;;5092150;28;20264;-63
2022/04/05 01:06:25;;;;;;;13.50;9.13;;;7.40;44.80;;;;;;5091540;28;20196;-64
2022/04/05 01:08:55;;;;;;;10.98;8.05;;;7.30;44.90;;;;;;5110330;28;20533;-63
2022/04/05 01:11:22;;;;;;;9.93;7.90;;;7.40;45.10;;;;;;5112080;28;20227;-63
2022/04/05 01:13:49;;;;;;;11.13;8.43;;;7.30;44.80;;;;;;5111170;28;20651;-63
2022/04/05 01:16:18;;;;;;;10.52;7.25;;;7.40;44.80;;;;;;5111707;28;20655;-63
2022/04/05 01:18:46;;;;;;;10.00;7.20;;;7.30;44.70;;;;;;5092447;28;20508;-63
2022/04/05 01:21:15;;;;;;;10.70;7.38;;;7.20;44.80;;;;;;5091623;28;20193;-63
2022/04/05 01:24:05;;;;;;;12.18;7.00;;;7.20;44.70;;;;;;5109422;28;20206;-63
2022/04/05 01:26:42;;;;;;;9.00;6.90;;;7.20;44.50;;;;;;5111765;28;20551;-65
2022/04/05 01:29:09;;;;;;;9.88;7.55;;;7.20;44.30;;;;;;5071349;28;20197;-62
2022/04/05 01:31:39;;;;;;;9.55;6.38;;;7.20;44.40;;;;;;5071481;28;20263;-63
2022/04/05 01:34:06;;;;;;;12.93;7.95;;;7.20;44.40;;;;;;5110989;28;20268;-63
2022/04/05 01:36:33;;;;;;;13.63;8.38;;;7.20;44.90;;;;;;5098546;28;20270;-63
2022/04/05 01:39:02;;;;;;;8.85;6.50;;;7.30;45.00;;;;;;5091559;28;20283;-62
2022/04/05 01:41:29;;;;;;;9.38;6.47;;;7.20;44.90;;;;;;5102643;28;20267;-63
2022/04/05 01:43:56;;;;;;;11.02;6.72;;;7.20;44.70;;;;;;5111436;28;20233;-63
2022/04/05 01:46:23;;;;;;;9.98;7.45;;;7.20;44.40;;;;;;5110828;28;20192;-63
2022/04/05 01:48:50;;;;;;;10.18;8.15;;;7.10;44.70;;;;;;5115522;28;20235;-62
2022/04/05 01:51:18;;;;;;;11.65;7.45;;;7.10;45.20;;;;;;5095816;28;20221;-63
2022/04/05 01:53:45;;;;;;;11.50;7.05;;;7.10;45.40;;;;;;5094747;28;20246;-63
2022/04/05 01:56:14;;;;;;;10.40;7.60;;;7.10;45.40;;;;;;5112040;28;20600;-63
2022/04/05 01:58:41;;;;;;;10.77;7.70;;;7.10;45.50;;;;;;5114900;28;20283;-63
2022/04/05 02:01:08;;;;;;;10.10;7.45;;;7.10;45.40;;;;;;5098036;28;20189;-63
2022/04/05 02:03:35;;;;;;;10.05;7.00;;;7.10;45.20;;;;;;5099789;28;20204;-63
2022/04/05 02:06:02;;;;;;;13.57;7.22;;;7.10;45.10;;;;;;5115086;28;20654;-63
2022/04/05 02:08:29;;;;;;;11.25;7.57;;;7.10;45.00;;;;;;5110759;28;20181;-64
2022/04/05 02:10:56;;;;;;;7.30;6.40;;;7.20;44.80;;;;;;5094600;28;20214;-65
2022/04/05 02:13:25;;;;;;;9.60;6.75;;;7.10;44.40;;;;;;5096673;28;20189;-63
2022/04/05 02:15:52;;;;;;;10.95;6.25;;;7.20;44.50;;;;;;5114894;28;20197;-65
2022/04/05 02:18:19;;;;;;;8.57;6.82;;;7.20;44.40;;;;;;5113370;28;20270;-63
2022/04/05 02:20:49;;;;;;;8.60;6.70;;;7.20;44.30;;;;;;5094433;28;20196;-64
2022/04/05 02:23:16;;;;;;;12.45;7.00;;;7.30;44.50;;;;;;5094109;28;20189;-63
2022/04/05 02:25:43;;;;;;;7.97;6.13;;;7.30;44.40;;;;;;5114724;28;20274;-63
2022/04/05 02:28:10;;;;;;;9.50;6.45;;;7.30;44.50;;;;;;5114169;28;20243;-63
2022/04/05 02:30:41;;;;;;;9.90;6.90;;;7.30;44.60;;;;;;5094316;28;20242;-63
2022/04/05 02:33:09;;;;;;;10.00;7.35;;;7.30;44.40;;;;;;5099203;28;20665;-62
2022/04/05 02:35:37;;;;;;;9.13;5.75;;;7.40;44.40;;;;;;5114598;28;20198;-63
2022/04/05 02:38:05;;;;;;;9.13;6.20;;;7.30;44.30;;;;;;5109545;28;20632;-63
2022/04/05 02:40:32;;;;;;;9.45;6.57;;;7.30;44.30;;;;;;5094176;28;20200;-63
2022/04/05 02:43:00;;;;;;;8.13;5.60;;;7.30;44.30;;;;;;5096864;28;20180;-62
2022/04/05 02:45:27;;;;;;;10.55;6.30;;;7.30;44.20;;;;;;5114391;28;20733;-63
2022/04/05 02:47:55;;;;;;;7.13;5.10;;;7.30;44.40;;;;;;5112233;28;20180;-62
2022/04/05 02:50:22;;;;;;;6.90;4.97;;;7.30;44.20;;;;;;5114129;28;20397;-63
2022/04/05 02:52:50;;;;;;;5.45;4.43;;;7.30;44.00;;;;;;5098910;28;20574;-63
2022/04/05 02:55:18;;;;;;;7.32;4.93;;;7.30;43.80;;;;;;5093851;28;20208;-63
2022/04/05 02:57:46;;;;;;;12.30;4.90;;;7.30;43.50;;;;;;5098344;28;20196;-63
2022/04/05 03:00:15;;;;;;;5.88;3.95;;;7.30;43.50;;;;;;5093571;28;20193;-63
2022/04/05 03:02:43;;;;;;;7.60;4.35;;;7.30;43.20;;;;;;5106023;28;20279;-63
2022/04/05 03:05:13;;;;;;;7.32;4.10;;;7.30;43.40;;;;;;5106789;28;20612;-64
2022/04/05 03:07:40;;;;;;;6.63;4.43;;;7.30;43.20;;;;;;5093587;28;20321;-63
2022/04/05 03:10:09;;;;;;;5.25;4.22;;;7.40;43.10;;;;;;5099082;28;20523;-63
2022/04/05 03:12:37;;;;;;;7.00;4.63;;;7.30;43.10;;;;;;5113872;28;20577;-63
2022/04/05 03:15:09;;;;;;;9.52;4.97;;;7.40;43.00;;;;;;5108362;28;20575;-63
2022/04/05 03:17:42;;;;;;;7.40;4.60;;;7.40;42.70;;;;;;5093296;28;20611;-63
2022/04/05 03:20:13;;;;;;;5.72;4.28;;;7.40;42.80;;;;;;5097778;28;20571;-63
2022/04/05 03:22:40;;;;;;;5.50;4.05;;;7.40;43.10;;;;;;5113453;28;20199;-63
2022/04/05 03:25:08;;;;;;;6.95;4.72;;;7.40;43.10;;;;;;5109186;28;20193;-63
2022/04/05 03:27:39;;;;;;;7.55;5.60;;;7.40;43.20;;;;;;5093158;28;20276;-63
2022/04/05 03:30:08;;;;;;;7.07;5.47;;;7.40;43.20;;;;;;5094372;28;20244;-63
2022/04/05 03:32:35;;;;;;;7.32;5.50;;;7.50;43.40;;;;;;5104113;28;20205;-63
2022/04/05 03:35:03;;;;;;;6.88;4.88;;;7.50;43.40;;;;;;5092922;28;20429;-63
2022/04/05 03:37:34;;;;;;;7.00;4.97;;;7.40;43.20;;;;;;5093774;28;20713;-63
2022/04/05 03:40:01;;;;;;;6.72;5.25;;;7.50;43.40;;;;;;5113086;28;20188;-63
2022/04/05 03:42:28;;;;;;;6.32;5.10;;;7.50;43.40;;;;;;5111775;28;20223;-64
2022/04/05 03:44:55;;;;;;;8.00;5.32;;;7.50;43.30;;;;;;5092641;28;20654;-63
2022/04/05 03:47:23;;;;;;;7.18;4.65;;;7.50;43.40;;;;;;5092747;28;20189;-63
2022/04/05 03:49:50;;;;;;;6.63;4.80;;;7.60;43.40;;;;;;5112673;28;20210;-63
2022/04/05 03:52:17;;;;;;;13.00;4.43;;;7.50;43.40;;;;;;5112937;28;20216;-63
2022/04/05 03:54:46;;;;;;;7.20;4.70;;;7.50;43.40;;;;;;5093794;28;20181;-63
2022/04/05 03:57:13;;;;;;;5.65;4.28;;;7.50;43.10;;;;;;5092712;28;20279;-63
2022/04/05 03:59:40;;;;;;;7.75;4.00;;;7.50;43.20;;;;;;5109836;28;20268;-63
2022/04/05 04:02:08;;;;;;;5.50;2.92;;;7.60;43.30;;;;;;5111413;28;20188;-63
2022/04/05 04:04:35;;;;;;;9.32;3.42;;;7.50;43.00;;;;;;5113400;28;20188;-63
2022/04/05 04:07:02;;;;;;;4.57;3.28;;;7.50;43.10;;;;;;5096979;28;20189;-63
2022/04/05 04:09:29;;;;;;;5.03;3.45;;;7.50;42.90;;;;;;5092138;28;20200;-63
2022/04/05 04:11:58;;;;;;;5.32;3.05;;;7.50;43.00;;;;;;5106448;28;20246;-63
2022/04/05 04:14:33;;;;;;;10.60;3.47;;;7.50;42.70;;;;;;5113374;28;20204;-63
2022/04/05 04:17:00;;;;;;;5.90;2.72;;;7.60;42.70;;;;;;5097387;28;20223;-63
2022/04/05 04:19:27;;;;;;;4.13;2.00;;;7.50;42.10;;;;;;5092636;28;20204;-63
2022/04/05 04:21:55;;;;;;;5.07;2.30;;;7.60;42.20;;;;;;5105965;28;20188;-63
2022/04/05 04:24:22;;;;;;;4.03;2.33;;;7.60;42.00;;;;;;5112977;28;20544;-63
2022/04/05 04:26:49;;;;;;;3.95;2.50;;;7.60;42.10;;;;;;5100541;28;20185;-63
2022/04/05 04:29:17;;;;;;;4.85;1.88;;;7.70;41.60;;;;;;5101713;28;20191;-63
2022/04/05 04:31:45;;;;;;;4.03;1.77;;;7.70;41.50;;;;;;5112492;28;20196;-63
2022/04/05 04:34:12;;;;;;;2.60;1.48;;;7.70;41.30;;;;;;5103944;28;20246;-63
2022/04/05 04:36:40;;;;;;;2.60;1.60;;;7.70;41.20;;;;;;5092560;28;20193;-62
2022/04/05 04:39:08;;;;;;;2.55;1.40;;;7.70;41.00;;;;;;5090920;28;20199;-63
2022/04/05 04:41:35;;;;;;;5.63;1.92;;;7.70;41.00;;;;;;5090660;28;20545;-63
2022/04/05 04:44:03;;;;;;;3.35;1.65;;;7.70;41.00;;;;;;5090160;28;20440;-64
2022/04/05 04:46:31;;;;;;;4.43;2.17;;;7.80;41.10;;;;;;5090551;28;20607;-63
2022/04/05 04:48:58;;;;;;;3.35;1.70;;;7.80;40.80;;;;;;5094769;28;20271;-63
2022/04/05 04:51:26;;;;;;;4.70;2.15;;;7.80;41.00;;;;;;5090476;28;20635;-63
2022/04/05 04:53:53;;;;;;;3.47;1.77;;;7.80;40.80;;;;;;5090109;28;20213;-66
2022/04/05 04:56:20;;;;;;;4.53;2.42;;;7.80;41.00;;;;;;5088842;28;20197;-63
2022/04/05 04:58:47;;;;;;;5.43;2.00;;;7.90;41.10;;;;;;5090996;28;20181;-63
2022/04/05 05:01:14;;;;;;;2.50;1.65;;;7.90;41.10;;;;;;5090680;28;20200;-63
2022/04/05 05:03:43;;;;;;;3.70;2.20;;;7.90;41.20;;;;;;5089784;28;20181;-64
2022/04/05 05:06:10;;;;;;;3.80;2.58;;;7.80;41.30;;;;;;5091207;28;20234;-63
2022/04/05 05:08:37;;;;;;;4.68;3.35;;;7.80;41.50;;;;;;5090269;28;20193;-62
2022/04/05 05:11:05;;;;;;;4.03;2.97;;;7.80;41.60;;;;;;5093204;28;20192;-62
2022/04/05 05:13:32;;;;;;;5.03;2.65;;;7.80;41.70;;;;;;5091480;28;20262;-63
2022/04/05 05:16:00;;;;;;;4.65;3.05;;;7.80;42.00;;;;;;5089948;28;20292;-63
2022/04/05 05:18:28;;;;;;;4.05;2.28;;;7.80;42.20;;;;;;5087137;28;20224;-63
2022/04/05 05:20:57;;;;;;;8.18;2.70;;;7.80;42.20;;;;;;5091349;28;20261;-63
2022/04/05 05:23:24;;;;;;;3.45;2.58;;;7.80;42.30;;;;;;5089897;28;20546;-65
2022/04/05 05:25:51;;;;;;;6.78;2.85;;;7.80;42.50;;;;;;5093394;28;21013;-64
2022/04/05 05:28:18;;;;;;;3.35;2.20;;;7.80;42.20;;;;;;5094071;28;20189;-62
2022/04/05 05:30:46;;;;;;;3.92;2.70;;;7.80;42.30;;;;;;5093717;28;20238;-64
2022/04/05 05:33:13;;;;;;;5.43;2.50;;;7.90;42.30;;;;;;5095432;28;20254;-63
2022/04/05 05:35:54;;;;;;;4.45;2.17;;;7.90;42.50;;;;;;5092017;28;20197;-68
2022/04/05 05:38:22;;;;;;;3.58;1.60;;;7.90;42.50;;;;;;5094326;28;20199;-63
2022/04/05 05:40:49;;;;;;;4.20;2.47;;;7.90;42.80;;;;;;5094573;28;20287;-63
2022/04/05 05:43:16;;;;;;;5.15;2.00;;;7.90;42.80;;;;;;5093506;28;20185;-63
2022/04/05 05:45:43;;;;;;;6.45;2.88;;;7.90;42.70;;;;;;5093836;28;20189;-64
2022/04/05 05:48:10;;;;;;;4.28;2.85;;;7.90;42.80;;;;;;5094719;28;20272;-63
2022/04/05 05:50:37;;;;;;;4.85;2.70;;;7.90;43.20;;;;;;5093672;28;20228;-63
2022/04/05 05:53:05;;;;;;;3.33;2.10;;;7.90;43.00;;;;;;5094084;28;20280;-65
2022/04/05 05:55:35;;;;;;;4.85;2.60;;;7.90;43.40;;;;;;5089247;28;20201;-64
2022/04/05 05:58:03;;;;;;;4.82;2.65;;;7.90;44.20;;;;;;5087802;28;20181;-63
2022/04/05 06:00:32;;;;;;;5.07;2.92;;;7.90;44.50;;;;;;5093130;28;20216;-63
2022/04/05 06:03:01;;;;;;;6.75;3.40;;;8.00;44.70;;;;;;5092869;28;20189;-64
2022/04/05 06:05:29;;;;;;;8.48;3.97;;;7.90;44.60;;;;;;5089377;28;20193;-63
2022/04/05 06:07:57;;;;;;;4.40;3.45;;;7.90;45.00;;;;;;5093105;28;20193;-64
2022/04/05 06:10:24;;;;;;;8.15;3.40;;;7.90;45.30;;;;;;5093258;28;20196;-63
2022/04/05 06:12:56;;;;;;;5.28;3.50;;;7.90;45.70;;;;;;5094577;28;20236;-63
2022/04/05 06:15:25;;;;;;;6.78;4.50;;;7.90;45.80;;;;;;5093368;28;20211;-63
2022/04/05 06:17:52;;;;;;;5.35;3.53;;;7.90;46.30;;;;;;5093152;28;20311;-63
2022/04/05 06:20:21;;;;;;;5.55;3.38;;;7.90;46.20;;;;;;5092744;28;20201;-64
2022/04/05 06:22:50;;;;;;;6.35;3.40;;;8.00;46.30;;;;;;5093129;28;20185;-63
2022/04/05 06:25:19;;;;;;;5.03;3.13;;;8.00;46.40;;;;;;5093162;28;20196;-63
2022/04/05 06:27:46;;;;;;;6.80;4.18;;;8.00;46.70;;;;;;5092676;28;20193;-65
2022/04/05 06:30:22;;;;;;;9.35;4.35;;;8.00;47.00;;;;;;5096108;28;20191;-64
2022/04/05 06:32:50;;;;;;;5.28;3.60;;;8.10;47.70;;;;;;5091885;28;20686;-64
2022/04/05 06:35:18;;;;;;;6.07;3.50;;;8.10;48.50;;;;;;5092056;28;20186;-63
2022/04/05 06:37:45;;;;;;;6.25;4.60;;;8.00;47.90;;;;;;5092673;28;20249;-63
2022/04/05 06:40:14;;;;;;;5.00;3.17;;;8.10;48.40;;;;;;5093094;28;20545;-64
2022/04/05 06:42:43;;;;;;;4.28;3.33;;;8.10;48.40;;;;;;5092794;28;20189;-63
2022/04/05 06:45:12;;;;;;;6.43;3.15;;;8.20;48.80;;;;;;5094538;28;20185;-63
2022/04/05 06:47:41;;;;;;;4.28;2.78;;;8.10;48.40;;;;;;5092514;28;20197;-63
2022/04/05 06:50:10;;;;;;;10.35;4.10;;;8.20;48.80;;;;;;5092860;28;20708;-63
2022/04/05 06:52:38;;;;;;;5.93;2.92;;;8.20;49.00;;;;;;5091872;28;20266;-63
2022/04/05 06:55:07;;;;;;;5.72;3.25;;;8.10;48.80;;;;;;5096037;28;20185;-63
2022/04/05 06:57:35;;;;;;;4.72;3.40;;;8.20;49.40;;;;;;5092308;28;20246;-64
2022/04/05 07:00:02;;;;;;;3.83;2.35;;;8.30;50.10;;;;;;5092391;28;20185;-65
2022/04/05 07:02:29;;;;;;;4.10;2.25;;;8.30;50.10;;;;;;5092171;28;20644;-63
2022/04/05 07:04:59;;;;;;;3.53;2.42;;;8.30;49.50;;;;;;5093026;28;21022;-64
2022/04/05 07:07:27;;;;;;;4.18;2.35;;;8.30;49.20;;;;;;5093654;28;20511;-64
2022/04/05 07:09:54;;;;;;;3.28;2.75;;;8.40;49.40;;;;;;5093760;28;20201;-63
2022/04/05 07:12:21;;;;;;;4.38;2.33;;;8.40;50.40;;;;;;5102187;28;20180;-63
2022/04/05 07:14:48;;;;;;;4.65;2.80;;;8.40;49.70;;;;;;5114573;28;20200;-63
2022/04/05 07:17:15;;;;;;;4.47;2.45;;;8.40;51.30;;;;;;5113257;28;20618;-63
2022/04/05 07:19:41;;;;;;;3.97;2.60;;;8.50;50.50;;;;;;5114253;28;20188;-63
2022/04/05 07:22:10;;;;;;;5.05;2.38;;;8.50;51.10;;;;;;5114466;28;20593;-63
2022/04/05 07:24:37;;;;;;;3.63;2.30;;;8.50;51.10;;;;;;5113876;28;20296;-63
2022/04/05 07:27:04;;;;;;;5.25;3.00;;;8.50;52.20;;;;;;5114196;28;20192;-64
2022/04/05 07:29:31;;;;;;;6.25;2.90;;;8.50;52.20;;;;;;5114141;28;20237;-64
2022/04/05 07:32:00;;;;;;;4.75;3.00;;;8.50;53.80;;;;;;5114120;28;20228;-64
2022/04/05 07:34:27;;;;;;;3.30;2.33;;;8.50;54.00;;;;;;5113918;28;20284;-66
2022/04/05 07:36:54;;;;;;;15.75;8.63;;;8.50;53.80;;;;;;5114089;28;20200;-65
2022/04/05 07:39:23;;;;;;;7.00;4.15;;;8.60;53.90;;;;;;5114045;28;20188;-64
2022/04/05 07:41:50;;;;;;;5.15;3.28;;;8.50;53.70;;;;;;5114081;28;20203;-64
2022/04/05 07:44:17;;;;;;;3.55;2.15;;;8.60;53.50;;;;;;5112774;28;20294;-63
2022/04/05 07:46:44;;;;;;;4.50;3.50;;;8.50;53.50;;;;;;5113628;28;20292;-63
2022/04/05 07:49:11;;;;;;;7.80;3.50;;;8.50;53.70;;;;;;5113924;28;20188;-63
2022/04/05 07:51:39;;;;;;;3.67;1.90;;;8.60;54.30;;;;;;5113905;28;20197;-64
2022/04/05 07:54:06;;;;;;;4.78;2.92;;;8.60;54.10;;;;;;5113177;28;20215;-64
2022/04/05 07:56:34;;;;;;;3.72;2.00;;;8.50;54.10;;;;;;5113759;28;20188;-64
2022/04/05 07:59:02;;;;;;;4.72;3.10;;;8.50;54.50;;;;;;5113940;28;20189;-63
2022/04/05 08:01:29;;;;;;;4.97;2.60;;;8.60;54.50;;;;;;5113528;28;20241;-64
2022/04/05 08:03:56;;;;;;;2.88;1.80;;;8.60;55.50;;;;;;5113752;28;20188;-69
2022/04/05 08:06:25;;;;;;;4.53;2.10;;;8.50;55.50;;;;;;5113626;28;20253;-64
2022/04/05 08:08:51;;;;;;;3.22;1.70;;;8.50;55.30;;;;;;5113577;28;20647;-64
2022/04/05 08:11:18;;;;;;;3.10;1.88;;;8.60;56.50;;;;;;5113678;28;20227;-64
2022/04/05 08:13:47;;;;;;;3.95;2.55;;;8.60;55.80;;;;;;5113365;28;20227;-64
2022/04/05 08:16:13;;;;;;;2.83;1.55;;;8.70;56.00;;;;;;5113376;28;20223;-64
2022/04/05 08:18:40;;;;;;;3.28;1.42;;;8.70;55.50;;;;;;5113626;28;20276;-64
2022/04/05 08:21:07;;;;;;;3.15;1.88;;;8.70;55.50;;;;;;5113502;28;20226;-64
2022/04/05 08:23:34;;;;;;;2.60;1.70;;;8.80;56.00;;;;;;5113345;28;20235;-65
2022/04/05 08:26:01;;;;;;;4.90;2.15;;;8.90;56.10;;;;;;5113431;28;20662;-64
2022/04/05 08:28:28;;;;;;;2.72;1.17;;;9.00;55.80;;;;;;5113415;28;20214;-66
2022/04/05 08:30:57;;;;;;;2.80;1.70;;;9.10;55.80;;;;;;5113216;28;20246;-64
2022/04/05 08:33:23;;;;;;;4.85;2.47;;;9.10;56.00;;;;;;5112797;28;20718;-64
2022/04/05 08:35:50;;;;;;;3.33;2.08;;;9.10;55.50;;;;;;5113363;28;20220;-63
2022/04/05 08:38:17;;;;;;;3.33;2.00;;;9.20;55.00;;;;;;5113224;28;20228;-64
2022/04/05 08:40:44;;;;;;;4.00;1.45;;;9.30;54.90;;;;;;5112836;28;20227;-64
2022/04/05 08:43:11;;;;;;;2.70;1.55;;;9.30;55.00;;;;;;5112817;28;20599;-65
2022/04/05 08:45:39;;;;;;;3.45;1.95;;;9.30;55.00;;;;;;5113157;28;20220;-64
2022/04/05 08:48:10;;;;;;;2.95;1.30;;;9.30;54.60;;;;;;5113187;28;20544;-63
2022/04/05 08:50:36;;;;;;;2.83;1.17;;;9.40;54.70;;;;;;5112771;28;20588;-63
2022/04/05 08:53:04;;;;;;;3.95;2.50;;;9.40;54.60;;;;;;5113044;28;20283;-64
2022/04/05 08:55:31;;;;;;;3.17;1.67;;;9.40;55.00;;;;;;5114175;28;20187;-64
2022/04/05 08:57:58;;;;;;;4.10;1.55;;;9.40;55.10;;;;;;5117171;28;20223;-63
2022/04/05 09:00:25;;;;;;;4.57;1.35;;;9.50;54.70;;;;;;5117280;28;20275;-64
2022/04/05 09:02:57;;;;;;;3.45;1.67;;;9.50;54.80;;;;;;5117022;28;20275;-64
2022/04/05 09:05:34;;;;;;;2.30;1.20;;;9.60;54.60;;;;;;5117380;28;20184;-64
2022/04/05 09:08:17;;;;;;;2.42;1.23;;;9.60;56.00;;;;;;5117199;28;20196;-63
2022/04/05 09:10:45;;;;;;;2.03;1.15;;;9.70;56.20;;;;;;5116976;28;20257;-64
2022/04/05 09:13:16;;;;;;;2.58;1.40;;;9.80;55.30;;;;;;5116808;28;20271;-64
2022/04/05 09:15:44;;;;;;;3.33;1.52;;;9.80;55.40;;;;;;5117042;28;20224;-64
2022/04/05 09:18:11;;;;;;;4.35;1.65;;;9.80;55.20;;;;;;5116625;28;20220;-64
2022/04/05 09:20:48;;;;;;;2.65;1.88;;;9.90;55.20;;;;;;5116732;28;20192;-64
2022/04/05 09:23:26;;;;;;;4.15;2.78;;;10.00;54.40;;;;;;5116649;28;20253;-63
2022/04/05 09:26:01;;;;;;;3.08;1.65;;;10.10;54.30;;;;;;5116634;28;20579;-64
2022/04/05 09:28:29;;;;;;;3.20;2.20;;;10.10;54.10;;;;;;5116495;28;20603;-63
2022/04/05 09:31:04;;;;;;;1.90;1.10;;;10.20;53.80;;;;;;5116603;28;20192;-64
2022/04/05 09:33:33;;;;;;;2.30;1.30;;;10.30;53.60;;;;;;5116567;28;20295;-63
2022/04/05 09:36:11;;;;;;;2.28;0.95;;;10.30;53.80;;;;;;5116458;28;20227;-64
2022/04/05 09:38:40;;;;;;;2.00;1.10;;;10.40;53.50;;;;;;5116406;28;20191;-63
2022/04/05 09:41:19;;;;;;;4.18;1.05;;;10.40;53.30;;;;;;5116172;28;20196;-63
2022/04/05 09:43:58;;;;;;;3.13;1.30;;;10.60;54.00;;;;;;5116429;28;20199;-64
2022/04/05 09:46:26;;;;;;;2.70;1.33;;;10.80;53.80;;;;;;5116013;28;20196;-65
2022/04/05 09:49:04;;;;;;;2.17;1.27;;;10.80;52.60;;;;;;5116344;28;20188;-65
2022/04/05 09:51:38;;;;;;;3.45;1.25;;;10.90;53.00;;;;;;5116347;28;20546;-64
2022/04/05 09:54:05;;;;;;;2.13;1.10;;;11.00;53.10;;;;;;5116060;28;20248;-64
2022/04/05 09:56:34;;;;;;;1.80;1.08;;;11.10;53.40;;;;;;5116163;28;20228;-64
2022/04/05 09:59:03;;;;;;;2.22;1.10;;;11.20;53.10;;;;;;5115883;28;20627;-63
2022/04/05 10:01:33;;;;;;;2.25;0.82;;;11.30;52.80;;;;;;5116085;28;20188;-64
2022/04/05 10:04:02;;;;;;;1.50;0.80;;;11.30;53.00;;;;;;5115812;28;20254;-64
2022/04/05 10:06:30;;;;;;;1.80;0.80;;;11.40;53.50;;;;;;5115590;28;20561;-64
2022/04/05 10:08:59;;;;;;;3.05;1.20;;;11.40;53.30;;;;;;5115141;28;20215;-64
2022/04/05 10:11:27;;;;;;;3.30;0.90;;;11.30;52.80;;;;;;5115740;28;20189;-64
2022/04/05 10:13:56;;;;;;;2.40;0.90;;;11.20;53.70;;;;;;5115542;28;20314;-64
2022/04/05 10:16:25;;;;;;;1.92;1.10;;;11.20;54.50;;;;;;5115506;28;20592;-64
2022/04/05 10:18:57;;;;;;;1.90;0.90;;;11.20;54.70;;;;;;5115805;28;20204;-65
2022/04/05 10:21:27;;;;;;;1.92;0.90;;;11.10;55.00;;;;;;5115985;28;20516;-64
2022/04/05 10:23:55;;;;;;;2.78;1.00;;;11.10;55.10;;;;;;5115629;28;20185;-64
2022/04/05 10:26:24;;;;;;;1.60;1.00;;;11.10;55.20;;;;;;5115734;28;20269;-63
2022/04/05 10:28:53;;;;;;;2.70;0.95;;;11.10;55.10;;;;;;5115628;28;20654;-65
2022/04/05 10:31:28;;;;;;;2.83;0.90;;;11.20;55.70;;;;;;5115525;28;20189;-64
2022/04/05 10:34:07;;;;;;;1.85;1.00;;;11.30;56.70;;;;;;5115534;28;20672;-64
2022/04/05 10:36:34;;;;;;;1.70;0.80;;;11.30;55.60;;;;;;5115305;28;20188;-64
2022/04/05 10:39:15;;;;;;;2.22;1.20;;;11.30;55.40;;;;;;5115242;28;20224;-64
2022/04/05 10:42:04;;;;;;;3.30;1.90;;;11.40;55.90;;;;;;5115347;28;21084;-63
2022/04/05 10:44:31;;;;;;;2.00;1.00;;;11.40;55.40;;;;;;5115088;28;20329;-64
2022/04/05 10:47:01;;;;;;;2.00;0.90;;;11.50;55.40;;;;;;5115002;28;20184;-63
2022/04/05 10:49:41;;;;;;;2.17;1.00;;;11.60;55.20;;;;;;5096187;28;20193;-64
2022/04/05 10:52:15;;;;;;;2.00;0.90;;;11.80;55.00;;;;;;5094331;28;20227;-64
2022/04/05 10:54:43;;;;;;;1.98;0.80;;;12.00;55.30;;;;;;5094701;28;20644;-64
2022/04/05 10:57:30;;;;;;;2.10;0.95;;;12.20;54.60;;;;;;5092808;28;20239;-63
2022/04/05 11:00:01;;;;;;;1.88;0.98;;;12.30;54.70;;;;;;5094253;28;20197;-64
2022/04/05 11:02:36;;;;;;;3.20;0.82;;;12.40;54.50;;;;;;5094525;28;20235;-64
2022/04/05 11:05:41;;;;;;;1.70;0.90;;;12.60;54.40;;;;;;5093157;28;20717;-64
2022/04/05 11:08:13;;;;;;;3.88;0.80;;;12.60;53.10;;;;;;5093590;28;20193;-64
2022/04/05 11:10:54;;;;;;;2.38;1.40;;;12.50;53.10;;;;;;5094307;28;20247;-64
2022/04/05 11:13:46;;;;;;;2.80;1.40;;;12.50;53.50;;;;;;5109160;28;20184;-63
2022/04/05 11:16:14;;;;;;;2.20;1.58;;;12.50;53.80;;;;;;5114716;28;20206;-65
2022/04/05 11:18:44;;;;;;;2.42;0.90;;;12.50;53.80;;;;;;5112390;28;20212;-65
2022/04/05 11:21:11;;;;;;;1.90;0.90;;;12.50;53.60;;;;;;5098804;28;20196;-65
2022/04/05 11:23:44;;;;;;;4.90;0.98;;;12.60;53.80;;;;;;5093038;28;20220;-64
2022/04/05 11:26:28;;;;;;;2.40;1.13;;;12.80;53.20;;;;;;5094283;28;20193;-63
2022/04/05 11:28:59;;;;;;;4.18;2.15;;;13.10;53.70;;;;;;5094148;28;20201;-64
2022/04/05 11:31:31;;;;;;;4.15;2.40;;;13.30;52.40;;;;;;5112169;28;20223;-64
2022/04/05 11:33:58;;;;;;;3.00;1.80;;;13.60;51.80;;;;;;5110400;28;20181;-64
2022/04/05 11:36:26;;;;;;;3.40;1.60;;;13.90;51.60;;;;;;5093245;28;20223;-65
2022/04/05 11:38:58;;;;;;;2.20;0.80;;;14.20;50.60;;;;;;5093858;28;20440;-64
2022/04/05 11:41:27;;;;;;;2.37;1.40;;;14.60;50.50;;;;;;5096553;28;20446;-64
2022/04/05 11:43:56;;;;;;;2.23;0.93;;;14.90;48.40;;;;;;5101198;28;20470;-64
2022/04/05 11:46:27;;;;;;;2.57;1.27;;;15.10;48.70;;;;;;5113993;28;20900;-65
2022/04/05 11:48:56;;;;;;;1.80;0.90;;;15.30;47.60;;;;;;5114220;28;20524;-64
2022/04/05 11:51:25;;;;;;;2.67;0.90;;;15.40;46.10;;;;;;5114141;28;20524;-65
2022/04/05 11:54:02;;;;;;;1.80;0.70;;;15.60;45.80;;;;;;5098603;28;20439;-64
2022/04/05 11:56:29;;;;;;;2.10;1.10;;;15.80;44.50;;;;;;5092888;28;20497;-64
2022/04/05 11:59:01;;;;;;;1.80;0.80;;;15.90;44.40;;;;;;5093170;28;20500;-63
2022/04/05 12:01:32;;;;;;;2.23;0.97;;;15.90;44.40;;;;;;5093188;28;20439;-63
2022/04/05 12:04:01;;;;;;;1.90;0.80;;;15.80;44.70;;;;;;5093624;28;20533;-64
2022/04/05 12:06:32;;;;;;;1.60;0.60;;;15.60;43.60;;;;;;5093089;28;20530;-64
2022/04/05 12:09:04;;;;;;;1.73;0.70;;;15.50;44.20;;;;;;5092984;28;20525;-64
2022/04/05 12:11:33;;;;;;;1.70;0.80;;;15.40;44.30;;;;;;5092778;28;20443;-64
2022/04/05 12:14:04;;;;;;;1.83;0.80;;;15.20;44.30;;;;;;5092377;28;20522;-64
2022/04/05 12:16:46;;;;;;;1.73;0.70;;;15.20;44.50;;;;;;5092212;28;20427;-66
2022/04/05 12:19:17;;;;;;;2.00;0.80;;;15.20;44.80;;;;;;5092368;28;20438;-64
2022/04/05 12:21:44;;;;;;;2.13;0.93;;;15.10;44.30;;;;;;5092492;28;20857;-64
2022/04/05 12:24:11;;;;;;;3.57;0.67;;;14.90;44.50;;;;;;5092257;28;20519;-63
2022/04/05 12:26:38;;;;;;;1.53;0.60;;;14.80;45.00;;;;;;5092380;28;20526;-64
2022/04/05 12:29:05;;;;;;;2.03;0.80;;;14.80;45.70;;;;;;5092600;28;20482;-64
2022/04/05 12:31:34;;;;;;;1.67;0.70;;;14.70;45.50;;;;;;5092737;28;20478;-64
2022/04/05 12:34:05;;;;;;;1.87;0.80;;;14.70;46.50;;;;;;5092759;28;20439;-63
2022/04/05 12:36:35;;;;;;;1.70;0.70;;;14.70;46.80;;;;;;5092024;28;20526;-65
2022/04/05 12:39:06;;;;;;;3.43;0.90;;;14.70;46.40;;;;;;5092159;28;20492;-64
2022/04/05 12:41:39;;;;;;;1.80;0.80;;;14.80;47.10;;;;;;5092119;28;20435;-64
2022/04/05 12:44:09;;;;;;;3.20;0.80;;;14.80;46.70;;;;;;5092494;28;20781;-64
2022/04/05 12:46:43;;;;;;;1.73;0.67;;;14.80;46.60;;;;;;5092086;28;20478;-64
2022/04/05 12:49:22;;;;;;;2.23;1.00;;;14.90;46.00;;;;;;5092311;28;20478;-64
2022/04/05 12:51:50;;;;;;;1.50;0.60;;;14.90;45.90;;;;;;5092252;28;20488;-64
2022/04/05 12:54:29;;;;;;;2.23;0.90;;;15.00;46.00;;;;;;5091897;28;20522;-64
2022/04/05 12:57:14;;;;;;;1.70;0.70;;;15.20;46.10;;;;;;5092120;28;20763;-64
2022/04/05 12:59:41;;;;;;;1.60;0.67;;;15.40;44.70;;;;;;5092054;28;20526;-63
2022/04/05 13:02:16;;;;;;;2.27;0.67;;;15.40;44.70;;;;;;5092049;28;20478;-63
2022/04/05 13:04:44;;;;;;;1.60;0.70;;;15.20;44.50;;;;;;5092020;28;20462;-63